createdAt,value
2022-11-12T00:00:17.091Z,11.80
2022-11-12T00:03:02.604Z,11.50
2022-11-12T00:05:50.890Z,9.90
2022-11-12T00:11:23.868Z,9.50
2022-11-12T00:14:10.149Z,7.60
2022-11-12T00:16:56.009Z,15.20
2022-11-12T00:19:45.727Z,14.60
2022-11-12T00:22:31.666Z,13.40
2022-11-12T00:25:17.995Z,9.30
2022-11-12T00:28:05.676Z,8.30
2022-11-12T00:30:51.518Z,10.40
2022-11-12T00:33:42.300Z,10.00
2022-11-12T00:36:27.910Z,10.20
2022-11-12T00:39:16.253Z,12.40
2022-11-12T00:42:01.644Z,10.00
2022-11-12T00:44:50.081Z,10.00
2022-11-12T00:47:35.962Z,6.90
2022-11-12T00:50:21.951Z,9.60
2022-11-12T00:53:08.465Z,7.90
2022-11-12T00:55:53.977Z,10.90
2022-11-12T00:58:39.718Z,10.80
2022-11-12T01:01:26.169Z,13.00
2022-11-12T01:04:11.932Z,10.20
2022-11-12T01:06:57.944Z,8.20
2022-11-12T01:09:43.683Z,8.90
2022-11-12T01:12:31.609Z,10.50
2022-11-12T01:15:16.942Z,10.30
2022-11-12T01:18:03.696Z,11.40
2022-11-12T01:20:50.539Z,9.80
2022-11-12T01:23:37.986Z,8.30
2022-11-12T01:26:24.030Z,8.60
2022-11-12T01:29:10.021Z,10.80
2022-11-12T01:31:55.846Z,10.50
2022-11-12T01:34:41.513Z,14.00
2022-11-12T01:37:27.083Z,9.90
2022-11-12T01:40:12.869Z,12.80
2022-11-12T01:42:58.578Z,10.50
2022-11-12T01:45:46.810Z,9.40
2022-11-12T01:48:38.581Z,11.10
2022-11-12T01:51:26.133Z,6.90
2022-11-12T01:54:13.635Z,9.00
2022-11-12T01:56:59.049Z,13.20
2022-11-12T01:59:47.981Z,9.50
2022-11-12T02:02:37.403Z,13.60
2022-11-12T02:05:22.953Z,8.70
2022-11-12T02:08:11.188Z,14.00
2022-11-12T02:13:58.633Z,9.00
2022-11-12T02:16:45.278Z,14.50
2022-11-12T02:19:37.155Z,12.20
2022-11-12T02:22:24.078Z,8.40
2022-11-12T02:25:13.141Z,8.50
2022-11-12T02:27:59.170Z,9.70
2022-11-12T02:30:47.083Z,11.50
2022-11-12T02:33:34.087Z,8.50
2022-11-12T02:36:19.660Z,10.40
2022-11-12T02:39:05.552Z,10.00
2022-11-12T02:41:51.541Z,10.60
2022-11-12T02:44:37.892Z,7.40
2022-11-12T02:47:23.520Z,9.00
2022-11-12T02:50:09.857Z,7.00
2022-11-12T02:52:55.525Z,9.90
2022-11-12T02:55:43.339Z,10.00
2022-11-12T02:58:29.648Z,12.00
2022-11-12T03:01:15.305Z,7.50
2022-11-12T03:04:01.666Z,5.80
2022-11-12T03:06:47.729Z,10.90
2022-11-12T03:09:36.001Z,7.80
2022-11-12T03:12:21.898Z,8.80
2022-11-12T03:15:08.396Z,9.60
2022-11-12T03:17:54.194Z,9.50
2022-11-12T03:20:39.929Z,6.70
2022-11-12T03:23:26.826Z,7.30
2022-11-12T03:26:13.045Z,9.60
2022-11-12T03:28:58.494Z,10.30
2022-11-12T03:31:44.035Z,9.30
2022-11-12T03:34:29.856Z,9.60
2022-11-12T03:37:15.573Z,9.80
2022-11-12T03:40:03.703Z,11.20
2022-11-12T03:42:50.249Z,10.20
2022-11-12T03:45:38.622Z,9.30
2022-11-12T03:48:24.861Z,9.50
2022-11-12T03:51:12.390Z,9.70
2022-11-12T03:53:58.378Z,11.30
2022-11-12T03:56:44.430Z,9.30
2022-11-12T03:59:30.332Z,9.20
2022-11-12T04:02:16.121Z,10.30
2022-11-12T04:05:21.281Z,10.10
2022-11-12T04:08:36.442Z,7.50
2022-11-12T04:11:22.119Z,9.00
2022-11-12T04:14:07.685Z,9.90
2022-11-12T04:17:12.325Z,10.80
2022-11-12T04:20:16.809Z,11.10
2022-11-12T04:23:03.357Z,11.60
2022-11-12T04:26:08.389Z,8.30
2022-11-12T04:29:13.331Z,6.70
2022-11-12T04:31:58.709Z,8.80
2022-11-12T04:34:45.087Z,9.10
2022-11-12T04:37:47.091Z,9.50
2022-11-12T04:40:51.508Z,9.60
2022-11-12T04:43:55.597Z,12.40
2022-11-12T04:46:41.769Z,11.10
2022-11-12T04:49:27.914Z,9.40
2022-11-12T04:52:13.853Z,8.50
2022-11-12T04:55:00.093Z,15.00
2022-11-12T04:57:45.653Z,10.60
2022-11-12T05:00:32.459Z,12.30
2022-11-12T05:03:18.531Z,10.60
2022-11-12T05:06:29.435Z,15.20
2022-11-12T05:09:15.166Z,9.10
2022-11-12T05:12:01.117Z,8.80
2022-11-12T05:14:47.048Z,9.40
2022-11-12T05:17:33.703Z,9.50
2022-11-12T05:20:20.556Z,9.50
2022-11-12T05:23:07.652Z,14.60
2022-11-12T05:25:53.803Z,11.00
2022-11-12T05:28:39.714Z,9.40
2022-11-12T05:31:25.844Z,10.10
2022-11-12T05:34:11.389Z,10.00
2022-11-12T05:36:57.583Z,11.00
2022-11-12T05:39:44.418Z,13.10
2022-11-12T05:42:30.048Z,11.50
2022-11-12T05:45:15.446Z,16.20
2022-11-12T05:48:00.671Z,11.70
2022-11-12T05:51:11.261Z,16.10
2022-11-12T05:53:55.209Z,11.80
2022-11-12T05:56:40.744Z,16.90
2022-11-12T05:59:25.885Z,7.80
2022-11-12T10:13:04.620Z,14.70
2022-11-12T10:16:19.163Z,14.70
2022-11-12T10:19:16.933Z,11.80
2022-11-12T10:22:23.176Z,8.60
2022-11-12T10:25:14.878Z,8.10
2022-11-12T10:28:02.269Z,12.40
2022-11-12T10:30:47.706Z,13.80
2022-11-12T10:33:33.674Z,10.50
2022-11-12T10:36:36.529Z,11.50
2022-11-12T10:39:38.921Z,11.20
2022-11-12T10:42:24.629Z,11.20
2022-11-12T10:45:21.335Z,9.80
2022-11-12T10:48:27.438Z,10.60
2022-11-12T10:51:24.581Z,11.80
2022-11-12T10:54:30.814Z,8.80
2022-11-12T10:57:26.841Z,9.10
2022-11-12T11:00:13.211Z,9.10
2022-11-12T11:03:00.194Z,7.30
2022-11-12T11:06:02.041Z,8.00
2022-11-12T11:08:49.448Z,9.70
2022-11-12T11:11:35.194Z,13.00
2022-11-12T11:14:23.903Z,10.60
2022-11-12T11:17:16.295Z,8.30
2022-11-12T11:20:02.302Z,10.70
2022-11-12T11:22:57.070Z,7.70
2022-11-12T11:25:43.206Z,8.30
2022-11-12T11:28:38.208Z,9.30
2022-11-12T11:31:38.330Z,10.30
2022-11-12T11:34:42.173Z,6.70
2022-11-12T11:37:29.165Z,6.90
2022-11-12T11:40:24.703Z,6.60
2022-11-12T11:43:31.183Z,8.50
2022-11-12T11:46:23.475Z,12.00
2022-11-12T11:49:35.482Z,10.00
2022-11-12T11:52:33.105Z,9.30
2022-11-12T11:55:37.858Z,9.40
2022-11-12T11:58:35.385Z,9.80
2022-11-12T12:01:21.011Z,9.80
2022-11-12T12:04:19.599Z,10.30
2022-11-12T12:07:46.132Z,9.10
2022-11-12T12:13:49.924Z,7.20
2022-11-12T12:16:58.769Z,7.90
2022-11-12T12:20:14.626Z,11.10
2022-11-12T12:23:04.963Z,9.20
2022-11-12T12:25:53.933Z,10.20
2022-11-12T12:28:59.327Z,11.00
2022-11-12T12:31:52.540Z,12.40
2022-11-12T12:34:47.912Z,8.90
2022-11-12T12:37:38.052Z,8.80
2022-11-12T12:46:31.461Z,10.30
2022-11-12T12:49:19.477Z,10.40
2022-11-12T12:52:18.165Z,8.60
2022-11-12T12:55:04.771Z,10.40
2022-11-12T12:57:58.795Z,10.10
2022-11-12T13:00:49.872Z,9.60
2022-11-12T13:03:42.915Z,9.60
2022-11-12T13:06:30.443Z,5.90
2022-11-12T13:09:16.082Z,8.20
2022-11-12T13:12:04.824Z,10.90
2022-11-12T13:14:52.751Z,12.00
2022-11-12T13:17:43.204Z,9.00
2022-11-12T13:20:34.527Z,11.10
2022-11-12T13:24:09.305Z,12.10
2022-11-12T13:26:58.073Z,8.60
2022-11-12T13:29:44.550Z,11.60
2022-11-12T13:32:38.390Z,9.80
2022-11-12T13:35:35.076Z,9.60
2022-11-12T13:38:20.515Z,9.50
2022-11-12T13:41:16.149Z,10.50
2022-11-12T13:44:05.543Z,9.80
2022-11-12T13:46:51.223Z,9.00
2022-11-12T13:49:37.635Z,6.00
2022-11-12T13:52:23.047Z,5.80
2022-11-12T13:55:20.081Z,6.60
2022-11-12T13:58:06.296Z,7.10
2022-11-12T14:00:54.824Z,9.50
2022-11-12T14:03:44.778Z,7.00
2022-11-12T18:22:20.897Z,8.10
2022-11-12T18:25:07.486Z,5.70
2022-11-12T18:27:52.973Z,5.50
2022-11-12T18:30:39.804Z,7.00
2022-11-12T18:33:26.019Z,7.80
2022-11-12T18:36:18.865Z,7.60
2022-11-12T18:39:04.583Z,6.60
2022-11-12T18:41:51.503Z,9.80
2022-11-12T18:44:39.482Z,7.00
2022-11-12T18:47:25.524Z,5.90
2022-11-12T18:50:11.136Z,7.00
2022-11-12T18:52:56.891Z,6.50
2022-11-12T18:55:43.904Z,7.50
2022-11-12T18:58:34.944Z,6.30
2022-11-12T19:01:22.663Z,5.50
2022-11-12T19:04:10.699Z,5.60
2022-11-12T19:06:56.982Z,4.70
2022-11-12T19:09:42.569Z,5.20
2022-11-12T19:12:29.114Z,5.60
2022-11-12T19:15:15.505Z,4.80
2022-11-12T19:18:02.070Z,6.60
2022-11-12T19:20:48.394Z,6.10
2022-11-12T19:23:34.174Z,5.70
2022-11-12T19:26:20.474Z,5.70
2022-11-12T19:29:05.976Z,4.50
2022-11-12T19:31:51.612Z,4.90
2022-11-12T19:34:37.118Z,5.10
2022-11-12T19:37:38.300Z,3.60
2022-11-12T19:40:23.725Z,5.00
2022-11-12T19:43:08.947Z,4.70
2022-11-12T19:45:55.415Z,5.10
2022-11-12T19:48:40.849Z,4.20
2022-11-12T19:51:26.314Z,5.50
2022-11-12T19:54:11.871Z,3.20
2022-11-12T19:56:58.218Z,6.30
2022-11-12T19:59:44.507Z,4.50
2022-11-12T20:02:30.236Z,5.40
2022-11-12T20:05:15.711Z,5.80
2022-11-12T20:08:01.467Z,5.10
2022-11-12T20:10:47.489Z,5.40
2022-11-12T20:13:33.098Z,3.40
2022-11-12T20:16:24.949Z,4.00
2022-11-12T20:19:10.946Z,4.50
2022-11-12T20:21:56.613Z,5.40
2022-11-12T20:24:42.457Z,5.00
2022-11-12T20:27:27.694Z,4.50
2022-11-12T20:30:13.614Z,4.10
2022-11-12T20:32:58.851Z,4.00
2022-11-12T20:35:45.515Z,4.30
2022-11-12T20:38:31.036Z,3.60
2022-11-12T20:41:18.716Z,4.90
2022-11-12T20:44:04.043Z,3.40
2022-11-12T20:46:49.415Z,5.40
2022-11-12T20:49:34.884Z,4.30
2022-11-12T20:52:20.307Z,7.50
2022-11-12T20:55:06.745Z,4.50
2022-11-12T20:57:52.722Z,5.00
2022-11-12T21:00:39.017Z,4.20
2022-11-12T21:03:24.427Z,4.10
2022-11-12T21:06:11.632Z,4.80
2022-11-12T21:09:00.512Z,3.50
2022-11-12T21:11:45.934Z,2.30
2022-11-12T21:14:31.504Z,2.60
2022-11-12T21:17:16.961Z,1.80
2022-11-12T21:20:02.505Z,3.20
2022-11-12T21:22:48.001Z,2.20
2022-11-12T21:25:37.551Z,2.90
2022-11-12T21:28:23.825Z,3.50
2022-11-12T21:31:14.817Z,3.30
2022-11-12T21:34:03.665Z,4.00
2022-11-12T21:36:49.324Z,2.90
2022-11-12T21:39:37.123Z,4.20
2022-11-12T21:42:22.538Z,4.00
2022-11-12T21:45:09.729Z,1.70
2022-11-12T21:47:55.191Z,1.80
2022-11-12T21:50:42.059Z,3.10
2022-11-12T21:53:27.260Z,2.90
2022-11-12T21:56:14.781Z,2.80
2022-11-12T21:59:01.484Z,3.70
2022-11-12T22:01:46.750Z,3.70
2022-11-12T22:04:32.378Z,4.10
